createdAt,value
2023-05-12T00:03:49.268Z,27.90
2023-05-12T00:09:51.222Z,27.48
2023-05-12T00:15:55.653Z,24.67
2023-05-12T00:21:57.498Z,26.35
2023-05-12T00:27:59.268Z,23.85
2023-05-12T00:34:01.040Z,19.30
2023-05-12T00:40:03.496Z,18.83
2023-05-12T00:46:06.457Z,17.15
2023-05-12T00:52:08.963Z,15.05
2023-05-12T00:58:10.897Z,13.10
2023-05-12T01:04:12.789Z,12.90
2023-05-12T01:10:22.193Z,14.27
2023-05-12T01:16:29.004Z,14.63
2023-05-12T01:22:31.865Z,14.10
2023-05-12T01:28:35.155Z,21.10
2023-05-12T01:34:36.967Z,20.52
2023-05-12T01:40:38.754Z,21.63
2023-05-12T01:46:40.620Z,19.95
2023-05-12T01:52:43.492Z,20.33
2023-05-12T01:58:45.382Z,18.55
2023-05-12T02:04:47.457Z,17.73
2023-05-12T02:10:49.283Z,16.45
2023-05-12T02:16:53.023Z,16.38
2023-05-12T02:22:54.850Z,15.77
2023-05-12T02:28:56.670Z,17.10
2023-05-12T02:34:58.478Z,18.70
2023-05-12T02:41:01.719Z,16.95
2023-05-12T02:47:04.294Z,18.77
2023-05-12T02:53:06.222Z,16.90
2023-05-12T02:59:08.040Z,16.98
2023-05-12T03:05:10.086Z,19.55
2023-05-12T03:11:12.129Z,16.83
2023-05-12T03:17:14.007Z,20.05
2023-05-12T03:23:16.915Z,13.70
2023-05-12T03:29:18.780Z,17.60
2023-05-12T03:35:20.910Z,18.45
2023-05-12T03:41:23.097Z,19.40
2023-05-12T03:47:27.111Z,18.48
2023-05-12T03:53:30.881Z,17.38
2023-05-12T03:59:33.270Z,17.30
2023-05-12T04:05:36.491Z,16.42
2023-05-12T04:11:38.569Z,16.75
2023-05-12T04:17:40.946Z,16.63
2023-05-12T04:23:43.014Z,15.65
2023-05-12T04:29:44.902Z,14.18
2023-05-12T04:35:46.867Z,15.48
2023-05-12T04:41:48.697Z,9.82
2023-05-12T04:47:50.642Z,14.38
2023-05-12T04:53:52.493Z,16.98
2023-05-12T04:59:54.303Z,18.63
2023-05-12T05:05:56.085Z,20.65
2023-05-12T05:11:57.896Z,20.42
2023-05-12T05:18:01.791Z,20.33
2023-05-12T05:24:03.929Z,20.42
2023-05-12T05:30:08.959Z,19.08
2023-05-12T05:36:11.004Z,15.77
2023-05-12T05:42:12.784Z,15.68
2023-05-12T05:48:14.629Z,17.00
2023-05-12T05:54:16.483Z,16.17
2023-05-12T06:00:18.702Z,14.63
2023-05-12T06:06:20.714Z,15.27
2023-05-12T06:12:22.590Z,14.60
2023-05-12T06:18:24.469Z,10.85
2023-05-12T06:24:26.279Z,9.30
2023-05-12T06:30:28.585Z,8.40
2023-05-12T06:36:30.711Z,9.05
2023-05-12T06:42:32.571Z,9.00
2023-05-12T06:48:34.490Z,8.48
2023-05-12T06:54:36.236Z,7.45
2023-05-12T07:00:38.337Z,6.97
2023-05-12T07:06:40.125Z,5.65
2023-05-12T07:12:42.200Z,6.72
2023-05-12T07:18:44.275Z,5.03
2023-05-12T07:24:46.397Z,7.03
2023-05-12T07:30:49.379Z,6.65
2023-05-12T07:36:51.391Z,5.82
2023-05-12T07:42:53.665Z,6.45
2023-05-12T07:48:55.540Z,6.65
2023-05-12T07:54:57.828Z,6.63
2023-05-12T08:01:06.016Z,7.28
2023-05-12T08:07:07.872Z,6.63
2023-05-12T08:13:09.709Z,6.22
2023-05-12T08:19:13.057Z,5.63
2023-05-12T08:25:15.072Z,7.97
2023-05-12T08:31:17.294Z,7.28
2023-05-12T08:37:19.315Z,7.53
2023-05-12T08:43:26.187Z,7.93
2023-05-12T08:49:31.518Z,8.45
2023-05-12T08:55:35.178Z,7.50
2023-05-12T09:01:38.081Z,7.25
2023-05-12T09:07:43.881Z,9.68
2023-05-12T09:14:09.535Z,10.00
2023-05-12T09:20:23.825Z,10.82
2023-05-12T09:26:45.214Z,7.05
2023-05-12T09:32:47.328Z,7.43
2023-05-12T09:39:05.823Z,9.23
2023-05-12T09:45:11.109Z,12.70
2023-05-12T09:51:18.432Z,14.45
2023-05-12T09:57:22.929Z,12.05
2023-05-12T10:03:30.249Z,10.23
2023-05-12T10:09:36.515Z,11.35
2023-05-12T10:15:38.944Z,11.20
2023-05-12T10:21:46.315Z,12.20
2023-05-12T10:27:49.531Z,10.95
2023-05-12T10:34:01.994Z,10.63
2023-05-12T10:40:05.048Z,9.98
2023-05-12T10:46:12.855Z,10.68
2023-05-12T10:52:20.135Z,11.85
2023-05-12T10:58:22.630Z,9.82
2023-05-12T11:04:44.116Z,7.80
2023-05-12T11:10:47.135Z,4.45
2023-05-12T11:16:49.019Z,4.10
2023-05-12T11:22:51.771Z,4.30
2023-05-12T11:28:54.490Z,4.00
2023-05-12T11:34:56.324Z,3.00
2023-05-12T11:40:58.278Z,2.60
2023-05-12T11:47:16.146Z,2.92
2023-05-12T11:53:19.087Z,2.47
2023-05-12T11:59:34.249Z,2.40
2023-05-12T12:05:36.157Z,2.55
2023-05-12T12:11:38.285Z,2.50
2023-05-12T12:17:40.642Z,2.63
2023-05-12T12:23:50.870Z,2.87
2023-05-12T12:29:53.619Z,2.65
2023-05-12T12:35:55.390Z,2.67
2023-05-12T12:41:57.192Z,2.45
2023-05-12T12:47:59.081Z,2.40
2023-05-12T12:54:00.880Z,1.90
2023-05-12T13:00:04.631Z,2.65
2023-05-12T13:06:06.816Z,2.60
2023-05-12T13:12:09.422Z,2.20
2023-05-12T13:18:11.225Z,2.07
2023-05-12T13:24:13.071Z,2.30
2023-05-12T13:30:15.204Z,2.28
2023-05-12T13:36:17.518Z,2.67
2023-05-12T13:42:21.665Z,2.72
2023-05-12T13:48:23.553Z,2.70
2023-05-12T13:54:25.465Z,2.38
2023-05-12T14:00:29.794Z,3.03
2023-05-12T14:06:32.302Z,3.20
2023-05-12T14:12:34.290Z,2.95
2023-05-12T14:18:36.145Z,3.55
2023-05-12T14:24:37.966Z,2.60
2023-05-12T14:30:48.692Z,2.78
2023-05-12T14:36:50.525Z,2.25
2023-05-12T14:42:52.613Z,3.05
2023-05-12T14:48:54.668Z,2.95
2023-05-12T14:54:56.675Z,2.50
2023-05-12T15:00:59.437Z,2.25
2023-05-12T15:07:01.336Z,2.30
2023-05-12T15:13:03.134Z,2.50
2023-05-12T15:19:05.003Z,2.67
2023-05-12T15:25:07.630Z,2.63
2023-05-12T15:31:09.841Z,2.73
2023-05-12T15:37:11.752Z,2.55
2023-05-12T15:43:13.664Z,2.63
2023-05-12T15:49:15.496Z,2.05
2023-05-12T15:55:17.604Z,2.25
2023-05-12T16:01:25.779Z,2.30
2023-05-12T16:07:30.619Z,2.33
2023-05-12T16:13:32.793Z,2.60
2023-05-12T16:19:34.607Z,2.08
2023-05-12T16:25:37.404Z,2.08
2023-05-12T16:31:39.222Z,2.40
2023-05-12T16:37:41.442Z,2.15
2023-05-12T16:43:43.433Z,2.35
2023-05-12T16:49:45.452Z,2.20
2023-05-12T16:55:47.284Z,2.30
2023-05-12T17:01:49.229Z,3.10
2023-05-12T17:07:53.927Z,2.10
2023-05-12T17:13:55.859Z,2.15
2023-05-12T17:19:57.785Z,2.10
2023-05-12T17:26:00.156Z,2.33
2023-05-12T17:32:02.182Z,2.47
2023-05-12T17:38:04.051Z,2.40
2023-05-12T17:44:05.889Z,2.10
2023-05-12T17:50:10.837Z,2.47
2023-05-12T17:56:12.730Z,2.40
2023-05-12T18:02:15.108Z,2.20
2023-05-12T18:08:17.410Z,2.38
2023-05-12T18:14:19.224Z,2.60
2023-05-12T18:20:21.179Z,2.47
2023-05-12T18:26:23.073Z,2.22
2023-05-12T18:32:26.221Z,2.60
2023-05-12T18:38:28.229Z,3.00
2023-05-12T18:44:30.025Z,2.60
2023-05-12T18:50:31.837Z,2.45
2023-05-12T18:56:33.695Z,2.03
2023-05-12T19:02:35.754Z,2.42
2023-05-12T19:08:37.649Z,2.38
2023-05-12T19:14:40.457Z,2.30
2023-05-12T19:20:42.203Z,2.50
2023-05-12T19:26:43.954Z,2.60
2023-05-12T19:32:46.324Z,2.50
2023-05-12T19:38:48.252Z,2.75
2023-05-12T19:44:50.361Z,2.72
2023-05-12T19:50:54.229Z,2.85
2023-05-12T19:56:56.193Z,2.97
2023-05-12T20:02:58.188Z,2.75
2023-05-12T20:09:00.038Z,2.88
2023-05-12T20:15:01.884Z,2.78
2023-05-12T20:21:03.797Z,2.95
2023-05-12T20:27:05.800Z,3.10
2023-05-12T20:33:07.722Z,2.60
2023-05-12T20:39:10.139Z,2.60
2023-05-12T20:45:12.386Z,2.72
2023-05-12T20:51:14.492Z,3.53
2023-05-12T20:57:16.265Z,2.78
2023-05-12T21:03:19.261Z,2.90
2023-05-12T21:09:21.544Z,2.92
2023-05-12T21:15:25.907Z,2.90
2023-05-12T21:21:28.697Z,3.00
2023-05-12T21:27:31.065Z,3.38
2023-05-12T21:33:33.389Z,3.10
2023-05-12T21:39:35.173Z,3.15
2023-05-12T21:45:37.361Z,3.08
2023-05-12T21:51:39.471Z,3.15
2023-05-12T21:57:42.214Z,3.30
2023-05-12T22:03:44.248Z,2.90
2023-05-12T22:09:46.121Z,3.20
2023-05-12T22:15:47.993Z,2.80
2023-05-12T22:21:49.859Z,2.97
2023-05-12T22:27:51.706Z,3.30
2023-05-12T22:33:53.547Z,4.25
2023-05-12T22:39:55.364Z,3.53
2023-05-12T22:45:57.218Z,3.17
2023-05-12T22:51:59.728Z,3.75
2023-05-12T22:58:01.490Z,3.97
2023-05-12T23:04:03.392Z,3.30
2023-05-12T23:10:06.123Z,4.22
2023-05-12T23:16:08.244Z,3.80
2023-05-12T23:22:10.104Z,3.95
2023-05-12T23:28:11.889Z,3.85
2023-05-12T23:34:13.704Z,4.03
2023-05-12T23:40:16.618Z,3.78
2023-05-12T23:46:18.481Z,4.15
2023-05-12T23:52:20.475Z,4.10
2023-05-12T23:58:22.318Z,3.65
